AMQ586 EPKT-LBWN
Flight info
| Callsign | AMQ586 |
|---|---|
| Flight time | N/A |
| Altitude | 37000 |
| Route | BABKO DCT EVRIK DCT RASUB DCT BULEN L744 EXIGA |
| Aircraft | A320/M-SDE3FGHIRWY/LB1 |
Departure
| Time | 2026-05-01 14:15 |
|---|---|
| Airport | Katowice Wojciech Korfanty International Airport (EPKT) |
Arrival
| Time | N/A |
|---|---|
| Airport | Varna Airport (LBWN) |
| Time | Latitude | Longitude | Altitude | Speed | Heading |
|---|---|---|---|---|---|
| 2026-05-01 13:44 | 50.47165 | 19.07018 | 999 ft | 0 kts | 180° |
| 2026-05-01 14:01 | 50.47180 | 19.07018 | 1001 ft | 4 kts | 180° |
| 2026-05-01 14:02 | 50.47207 | 19.07016 | 1000 ft | 4 kts | 166° |
| 2026-05-01 14:02 | 50.47229 | 19.07000 | 999 ft | 4 kts | 126° |
| 2026-05-01 14:02 | 50.47236 | 19.06978 | 999 ft | 0 kts | 90° |
| 2026-05-01 14:05 | 50.47236 | 19.07021 | 998 ft | 11 kts | 90° |
| 2026-05-01 14:05 | 50.47236 | 19.07220 | 998 ft | 22 kts | 90° |
| 2026-05-01 14:06 | 50.47235 | 19.07466 | 1001 ft | 23 kts | 90° |
| 2026-05-01 14:06 | 50.47234 | 19.07722 | 1000 ft | 21 kts | 90° |
| 2026-05-01 14:06 | 50.47234 | 19.07962 | 1003 ft | 23 kts | 90° |
| 2026-05-01 14:06 | 50.47233 | 19.08214 | 998 ft | 24 kts | 91° |
| 2026-05-01 14:07 | 50.47232 | 19.08468 | 998 ft | 23 kts | 90° |
| 2026-05-01 14:07 | 50.47232 | 19.08710 | 1002 ft | 21 kts | 90° |
| 2026-05-01 14:07 | 50.47232 | 19.08941 | 1002 ft | 22 kts | 90° |
| 2026-05-01 14:08 | 50.47230 | 19.09431 | 1002 ft | 23 kts | 90° |
| 2026-05-01 14:08 | 50.47230 | 19.09689 | 1004 ft | 24 kts | 90° |
| 2026-05-01 14:08 | 50.47229 | 19.09915 | 1003 ft | 18 kts | 90° |
| 2026-05-01 14:08 | 50.47253 | 19.10059 | 1001 ft | 14 kts | 53° |
| 2026-05-01 14:09 | 50.47314 | 19.10183 | 998 ft | 15 kts | 52° |
| 2026-05-01 14:09 | 50.47379 | 19.10312 | 998 ft | 15 kts | 52° |
| 2026-05-01 14:09 | 50.47413 | 19.10381 | 998 ft | 0 kts | 52° |
| 2026-05-01 14:13 | 50.47433 | 19.10419 | 1002 ft | 10 kts | 49° |
| 2026-05-01 14:13 | 50.47518 | 19.10449 | 1000 ft | 15 kts | 0° |
| 2026-05-01 14:13 | 50.47593 | 19.10373 | 1001 ft | 15 kts | 276° |
| 2026-05-01 14:14 | 50.47594 | 19.10130 | 1001 ft | 43 kts | 270° |
| 2026-05-01 14:14 | 50.47597 | 19.09277 | 1002 ft | 110 kts | 270° |
| 2026-05-01 14:14 | 50.47601 | 19.07774 | 1000 ft | 163 kts | 270° |
| 2026-05-01 14:14 | 50.47601 | 19.05889 | 1408 ft | 171 kts | 275° |
| 2026-05-01 14:15 | 50.47604 | 19.04024 | 2211 ft | 170 kts | 273° |
| 2026-05-01 14:15 | 50.47595 | 19.02120 | 2757 ft | 182 kts | 273° |
| 2026-05-01 14:15 | 50.47600 | 19.00012 | 3090 ft | 204 kts | 275° |
| 2026-05-01 14:15 | 50.47504 | 18.97672 | 3400 ft | 229 kts | 258° |
| 2026-05-01 14:16 | 50.46595 | 18.95460 | 3731 ft | 260 kts | 219° |
| 2026-05-01 14:16 | 50.44870 | 18.94424 | 4290 ft | 276 kts | 181° |
| 2026-05-01 14:16 | 50.42968 | 18.94901 | 5160 ft | 279 kts | 162° |
| 2026-05-01 14:16 | 50.41142 | 18.95972 | 6041 ft | 282 kts | 154° |
| 2026-05-01 14:17 | 50.39352 | 18.97258 | 6886 ft | 284 kts | 152° |
| 2026-05-01 14:17 | 50.37554 | 18.98596 | 7677 ft | 289 kts | 151° |
| 2026-05-01 14:17 | 50.35714 | 18.99929 | 8476 ft | 293 kts | 152° |
| 2026-05-01 14:17 | 50.33836 | 19.01236 | 9267 ft | 298 kts | 152° |
| 2026-05-01 14:18 | 50.31914 | 19.02524 | 10065 ft | 303 kts | 152° |
| 2026-05-01 14:18 | 50.29944 | 19.03811 | 10653 ft | 315 kts | 153° |
| 2026-05-01 14:18 | 50.27848 | 19.05167 | 10881 ft | 338 kts | 153° |
| 2026-05-01 14:18 | 50.26372 | 19.06115 | 11006 ft | 353 kts | 153° |
| 2026-05-01 14:19 | 50.23234 | 19.08108 | 11551 ft | 371 kts | 153° |
| 2026-05-01 14:19 | 50.20819 | 19.09623 | 12224 ft | 375 kts | 153° |
| 2026-05-01 14:19 | 50.18388 | 19.11145 | 12897 ft | 379 kts | 153° |
| 2026-05-01 14:19 | 50.15925 | 19.12688 | 13599 ft | 383 kts | 153° |
| 2026-05-01 14:20 | 50.13441 | 19.14252 | 14237 ft | 388 kts | 152° |
| 2026-05-01 14:20 | 50.08398 | 19.17441 | 15436 ft | 394 kts | 152° |
| 2026-05-01 14:20 | 50.05843 | 19.19053 | 16034 ft | 398 kts | 152° |
| 2026-05-01 14:21 | 50.03271 | 19.20676 | 16621 ft | 401 kts | 152° |
| 2026-05-01 14:21 | 50.00676 | 19.22311 | 17220 ft | 404 kts | 152° |
| 2026-05-01 14:21 | 49.98061 | 19.23958 | 17809 ft | 407 kts | 152° |
| 2026-05-01 14:22 | 49.92766 | 19.27284 | 18942 ft | 414 kts | 152° |
| 2026-05-01 14:22 | 49.90090 | 19.28957 | 19470 ft | 416 kts | 152° |
| 2026-05-01 14:22 | 49.87431 | 19.30618 | 19978 ft | 419 kts | 152° |
| 2026-05-01 14:22 | 49.84721 | 19.32315 | 20502 ft | 422 kts | 152° |
| 2026-05-01 14:23 | 49.81993 | 19.34024 | 21008 ft | 424 kts | 152° |
| 2026-05-01 14:23 | 49.79248 | 19.35741 | 21537 ft | 427 kts | 151° |
| 2026-05-01 14:23 | 49.76475 | 19.37473 | 21986 ft | 431 kts | 151° |
| 2026-05-01 14:23 | 49.73682 | 19.39211 | 22407 ft | 434 kts | 151° |
| 2026-05-01 14:24 | 49.70870 | 19.40952 | 22842 ft | 437 kts | 151° |
| 2026-05-01 14:24 | 49.68042 | 19.42696 | 23316 ft | 439 kts | 151° |
| 2026-05-01 14:24 | 49.65196 | 19.44447 | 23776 ft | 441 kts | 151° |
| 2026-05-01 14:24 | 49.62340 | 19.46216 | 24149 ft | 443 kts | 150° |
| 2026-05-01 14:25 | 49.59612 | 19.48344 | 24485 ft | 438 kts | 142° |
| 2026-05-01 14:25 | 49.56993 | 19.50753 | 24844 ft | 439 kts | 142° |
| 2026-05-01 14:25 | 49.54359 | 19.53172 | 25191 ft | 441 kts | 142° |
| 2026-05-01 14:25 | 49.51713 | 19.55594 | 25512 ft | 444 kts | 142° |
| 2026-05-01 14:26 | 49.49052 | 19.58020 | 25837 ft | 446 kts | 142° |
| 2026-05-01 14:26 | 49.43678 | 19.62903 | 26496 ft | 451 kts | 142° |
| 2026-05-01 14:26 | 49.40973 | 19.65357 | 26806 ft | 453 kts | 142° |
| 2026-05-01 14:27 | 49.38288 | 19.67794 | 27095 ft | 455 kts | 142° |
| 2026-05-01 14:27 | 49.35559 | 19.70268 | 27393 ft | 457 kts | 142° |
| 2026-05-01 14:27 | 49.32815 | 19.72748 | 27687 ft | 459 kts | 142° |
| 2026-05-01 14:28 | 49.27289 | 19.77732 | 28244 ft | 463 kts | 142° |
| 2026-05-01 14:28 | 49.24511 | 19.80237 | 28522 ft | 465 kts | 142° |
| 2026-05-01 14:28 | 49.21720 | 19.82749 | 28775 ft | 466 kts | 142° |
| 2026-05-01 14:28 | 49.18918 | 19.85270 | 29020 ft | 468 kts | 142° |
| 2026-05-01 14:29 | 49.16106 | 19.87798 | 29328 ft | 470 kts | 142° |
| 2026-05-01 14:29 | 49.13277 | 19.90333 | 29636 ft | 471 kts | 142° |
| 2026-05-01 14:30 | 49.04818 | 19.97869 | 30551 ft | 469 kts | 142° |
| 2026-05-01 14:30 | 49.02002 | 20.00374 | 30817 ft | 469 kts | 142° |
| 2026-05-01 14:30 | 48.99184 | 20.02883 | 31059 ft | 469 kts | 141° |
| 2026-05-01 14:31 | 48.93539 | 20.07910 | 31539 ft | 470 kts | 142° |
| 2026-05-01 14:31 | 48.90715 | 20.10421 | 31811 ft | 470 kts | 142° |
| 2026-05-01 14:31 | 48.87891 | 20.12923 | 32111 ft | 470 kts | 141° |
| 2026-05-01 14:31 | 48.85058 | 20.15431 | 32299 ft | 472 kts | 141° |
| 2026-05-01 14:32 | 48.82221 | 20.17938 | 32559 ft | 472 kts | 141° |
| 2026-05-01 14:32 | 48.79381 | 20.20439 | 32793 ft | 472 kts | 142° |
| 2026-05-01 14:32 | 48.76540 | 20.22931 | 33090 ft | 472 kts | 142° |
| 2026-05-01 14:32 | 48.73700 | 20.25419 | 33345 ft | 472 kts | 142° |
| 2026-05-01 14:33 | 48.70860 | 20.27909 | 33563 ft | 472 kts | 142° |
| 2026-05-01 14:33 | 48.68018 | 20.30405 | 33850 ft | 472 kts | 142° |
| 2026-05-01 14:33 | 48.65178 | 20.32899 | 34119 ft | 472 kts | 142° |
| 2026-05-01 14:33 | 48.62336 | 20.35390 | 34351 ft | 473 kts | 142° |
| 2026-05-01 14:34 | 48.59523 | 20.37849 | 34592 ft | 473 kts | 142° |
| 2026-05-01 14:34 | 48.56677 | 20.40332 | 34842 ft | 472 kts | 142° |
| 2026-05-01 14:34 | 48.53836 | 20.42807 | 35044 ft | 472 kts | 142° |
| 2026-05-01 14:34 | 48.50995 | 20.45277 | 35255 ft | 471 kts | 142° |
| 2026-05-01 14:35 | 48.48157 | 20.47743 | 35455 ft | 471 kts | 142° |
| 2026-05-01 14:35 | 48.45318 | 20.50207 | 35657 ft | 471 kts | 142° |
| 2026-05-01 14:35 | 48.42481 | 20.52666 | 35861 ft | 470 kts | 142° |
| 2026-05-01 14:35 | 48.39645 | 20.55123 | 36044 ft | 470 kts | 142° |
| 2026-05-01 14:36 | 48.36810 | 20.57578 | 36228 ft | 470 kts | 143° |
| 2026-05-01 14:36 | 48.33970 | 20.60034 | 36408 ft | 470 kts | 143° |
| 2026-05-01 14:36 | 48.31133 | 20.62479 | 36627 ft | 470 kts | 143° |
| 2026-05-01 14:36 | 48.28292 | 20.64920 | 36804 ft | 470 kts | 143° |
| 2026-05-01 14:37 | 48.25454 | 20.67357 | 36971 ft | 470 kts | 143° |
| 2026-05-01 14:37 | 48.22616 | 20.69793 | 37140 ft | 470 kts | 143° |
| 2026-05-01 14:37 | 48.19774 | 20.72231 | 37279 ft | 471 kts | 143° |
| 2026-05-01 14:38 | 48.14076 | 20.77119 | 37305 ft | 472 kts | 143° |
| 2026-05-01 14:38 | 48.08404 | 20.81968 | 37292 ft | 473 kts | 143° |
| 2026-05-01 14:39 | 48.02681 | 20.86838 | 37302 ft | 473 kts | 143° |
| 2026-05-01 14:39 | 47.96968 | 20.91693 | 37298 ft | 473 kts | 143° |
| 2026-05-01 14:40 | 47.91249 | 20.96546 | 37302 ft | 473 kts | 143° |
| 2026-05-01 14:40 | 47.85521 | 21.01383 | 37307 ft | 474 kts | 143° |
| 2026-05-01 14:41 | 47.79789 | 21.06226 | 37311 ft | 474 kts | 143° |
| 2026-05-01 14:41 | 47.74048 | 21.11060 | 37313 ft | 474 kts | 143° |
| 2026-05-01 14:42 | 47.68299 | 21.15880 | 37310 ft | 474 kts | 143° |
| 2026-05-01 14:42 | 47.62592 | 21.20659 | 37310 ft | 474 kts | 143° |
| 2026-05-01 14:43 | 47.56836 | 21.25455 | 37312 ft | 474 kts | 144° |
| 2026-05-01 14:43 | 47.51071 | 21.30242 | 37314 ft | 474 kts | 143° |
| 2026-05-01 14:44 | 47.45324 | 21.35016 | 37307 ft | 473 kts | 144° |
| 2026-05-01 14:44 | 47.36711 | 21.42158 | 37303 ft | 473 kts | 144° |
| 2026-05-01 14:45 | 47.28099 | 21.49264 | 37303 ft | 473 kts | 144° |
| 2026-05-01 14:46 | 47.22357 | 21.53986 | 37294 ft | 473 kts | 144° |
| 2026-05-01 14:46 | 47.13758 | 21.61021 | 37322 ft | 473 kts | 144° |
| 2026-05-01 14:47 | 47.08006 | 21.65705 | 37320 ft | 473 kts | 144° |
| 2026-05-01 14:48 | 46.99386 | 21.72738 | 37321 ft | 473 kts | 144° |
| 2026-05-01 14:48 | 46.90764 | 21.79750 | 37312 ft | 472 kts | 145° |
| 2026-05-01 14:49 | 46.79272 | 21.89031 | 37303 ft | 472 kts | 145° |
| 2026-05-01 14:50 | 46.67771 | 21.98282 | 37292 ft | 472 kts | 145° |
| 2026-05-01 14:51 | 46.59135 | 22.05181 | 37305 ft | 472 kts | 146° |
| 2026-05-01 14:52 | 46.50527 | 22.12045 | 37291 ft | 472 kts | 145° |
| 2026-05-01 14:53 | 46.41884 | 22.18928 | 37287 ft | 473 kts | 146° |
| 2026-05-01 14:53 | 46.36167 | 22.23609 | 37298 ft | 469 kts | 140° |
| 2026-05-01 14:54 | 46.31320 | 22.29727 | 37288 ft | 460 kts | 130° |
| 2026-05-01 14:54 | 46.26753 | 22.36213 | 37269 ft | 460 kts | 130° |
| 2026-05-01 14:55 | 46.25982 | 22.37306 | 37276 ft | 460 kts | 130° |
| 2026-05-01 14:55 | 46.22984 | 22.41354 | 37264 ft | 459 kts | 131° |
| 2026-05-01 14:56 | 46.18426 | 22.47796 | 37280 ft | 458 kts | 130° |
| 2026-05-01 14:56 | 46.13911 | 22.54309 | 37259 ft | 459 kts | 130° |
| 2026-05-01 14:57 | 46.09353 | 22.60775 | 37251 ft | 460 kts | 131° |
| 2026-05-01 14:57 | 46.02475 | 22.70375 | 37254 ft | 462 kts | 131° |
| 2026-05-01 14:58 | 45.97848 | 22.76815 | 37284 ft | 463 kts | 131° |
| 2026-05-01 14:58 | 45.93219 | 22.83257 | 37281 ft | 464 kts | 131° |
| 2026-05-01 14:59 | 45.88587 | 22.89698 | 37278 ft | 464 kts | 131° |
| 2026-05-01 14:59 | 45.83948 | 22.96134 | 37270 ft | 464 kts | 132° |
| 2026-05-01 15:00 | 45.76970 | 23.05763 | 37284 ft | 465 kts | 132° |
| 2026-05-01 15:01 | 45.72307 | 23.12176 | 37279 ft | 465 kts | 132° |
| 2026-05-01 15:01 | 45.67633 | 23.18595 | 37277 ft | 466 kts | 132° |
| 2026-05-01 15:02 | 45.62959 | 23.25007 | 37280 ft | 466 kts | 133° |
| 2026-05-01 15:02 | 45.58307 | 23.31378 | 37293 ft | 467 kts | 133° |
| 2026-05-01 15:03 | 45.53615 | 23.37785 | 37280 ft | 467 kts | 133° |
| 2026-05-01 15:03 | 45.48908 | 23.44168 | 37277 ft | 467 kts | 133° |
| 2026-05-01 15:04 | 45.44995 | 23.49476 | 37276 ft | 468 kts | 133° |
| 2026-05-01 15:04 | 45.40285 | 23.55874 | 37281 ft | 468 kts | 133° |
| 2026-05-01 15:05 | 45.35569 | 23.62261 | 37275 ft | 468 kts | 133° |
| 2026-05-01 15:05 | 45.30841 | 23.68628 | 37285 ft | 468 kts | 133° |
| 2026-05-01 15:06 | 45.26106 | 23.74989 | 37276 ft | 468 kts | 134° |
| 2026-05-01 15:06 | 45.21371 | 23.81348 | 37288 ft | 469 kts | 134° |
| 2026-05-01 15:07 | 45.16632 | 23.87699 | 37281 ft | 469 kts | 134° |
| 2026-05-01 15:07 | 45.11875 | 23.94042 | 37278 ft | 469 kts | 134° |
| 2026-05-01 15:08 | 45.07118 | 24.00371 | 37290 ft | 469 kts | 134° |
| 2026-05-01 15:08 | 45.02385 | 24.06653 | 37291 ft | 470 kts | 135° |
| 2026-05-01 15:09 | 44.97621 | 24.12968 | 37281 ft | 470 kts | 135° |
| 2026-05-01 15:09 | 44.92853 | 24.19278 | 37277 ft | 470 kts | 135° |
| 2026-05-01 15:10 | 44.88068 | 24.25585 | 37285 ft | 471 kts | 135° |
| 2026-05-01 15:10 | 44.80890 | 24.35036 | 37293 ft | 471 kts | 135° |
| 2026-05-01 15:11 | 44.73689 | 24.44466 | 37293 ft | 471 kts | 135° |
| 2026-05-01 15:12 | 44.68892 | 24.50748 | 37297 ft | 471 kts | 135° |
| 2026-05-01 15:12 | 44.61677 | 24.60152 | 37299 ft | 472 kts | 136° |
| 2026-05-01 15:14 | 44.49667 | 24.75721 | 37306 ft | 472 kts | 136° |
| 2026-05-01 15:14 | 44.42436 | 24.85060 | 37312 ft | 471 kts | 136° |
| 2026-05-01 15:15 | 44.32782 | 24.97467 | 37297 ft | 471 kts | 137° |
| 2026-05-01 15:16 | 44.23109 | 25.09827 | 37299 ft | 471 kts | 137° |
| 2026-05-01 15:18 | 44.11006 | 25.25246 | 37315 ft | 472 kts | 138° |
| 2026-05-01 15:19 | 44.01289 | 25.37546 | 37314 ft | 473 kts | 138° |
| 2026-05-01 15:19 | 43.94596 | 25.47573 | 37307 ft | 473 kts | 128° |
| 2026-05-01 15:20 | 43.88491 | 25.58257 | 37305 ft | 474 kts | 128° |
| 2026-05-01 15:21 | 43.84381 | 25.65403 | 37079 ft | 474 kts | 129° |
| 2026-05-01 15:21 | 43.82325 | 25.68964 | 36830 ft | 473 kts | 129° |
| 2026-05-01 15:21 | 43.80266 | 25.72531 | 36092 ft | 476 kts | 129° |
| 2026-05-01 15:21 | 43.78193 | 25.76124 | 35211 ft | 479 kts | 129° |
| 2026-05-01 15:22 | 43.74561 | 25.83867 | 33209 ft | 483 kts | 114° |
| 2026-05-01 15:22 | 43.73365 | 25.88208 | 32220 ft | 482 kts | 109° |
| 2026-05-01 15:22 | 43.72273 | 25.92587 | 31232 ft | 482 kts | 109° |
| 2026-05-01 15:23 | 43.71167 | 25.96977 | 30063 ft | 484 kts | 109° |
| 2026-05-01 15:23 | 43.70053 | 26.01374 | 28859 ft | 484 kts | 109° |
| 2026-05-01 15:23 | 43.68943 | 26.05751 | 27806 ft | 482 kts | 109° |
| 2026-05-01 15:23 | 43.67848 | 26.10065 | 27209 ft | 471 kts | 109° |
| 2026-05-01 15:24 | 43.66772 | 26.14311 | 26465 ft | 465 kts | 109° |
| 2026-05-01 15:24 | 43.65710 | 26.18487 | 25760 ft | 459 kts | 109° |
| 2026-05-01 15:24 | 43.64653 | 26.22624 | 25078 ft | 454 kts | 109° |
| 2026-05-01 15:24 | 43.63602 | 26.26708 | 24356 ft | 450 kts | 110° |
| 2026-05-01 15:25 | 43.62361 | 26.30698 | 23093 ft | 456 kts | 114° |
| 2026-05-01 15:25 | 43.61027 | 26.34690 | 22185 ft | 454 kts | 114° |
| 2026-05-01 15:25 | 43.59683 | 26.38570 | 21259 ft | 444 kts | 115° |
| 2026-05-01 15:25 | 43.58344 | 26.42372 | 20309 ft | 438 kts | 115° |
| 2026-05-01 15:26 | 43.57021 | 26.46121 | 19409 ft | 432 kts | 115° |
| 2026-05-01 15:26 | 43.55721 | 26.49824 | 18548 ft | 425 kts | 115° |
| 2026-05-01 15:26 | 43.54455 | 26.53461 | 17811 ft | 415 kts | 114° |
| 2026-05-01 15:26 | 43.53235 | 26.56986 | 17329 ft | 401 kts | 114° |
| 2026-05-01 15:27 | 43.52054 | 26.60397 | 16800 ft | 389 kts | 114° |
| 2026-05-01 15:27 | 43.50895 | 26.63742 | 16308 ft | 385 kts | 114° |
| 2026-05-01 15:27 | 43.49745 | 26.67056 | 15777 ft | 382 kts | 114° |
| 2026-05-01 15:28 | 43.47462 | 26.73620 | 14720 ft | 378 kts | 113° |
| 2026-05-01 15:28 | 43.46333 | 26.76869 | 14192 ft | 376 kts | 114° |
| 2026-05-01 15:28 | 43.45207 | 26.80105 | 13582 ft | 374 kts | 114° |
| 2026-05-01 15:29 | 43.42980 | 26.86491 | 12461 ft | 367 kts | 114° |
| 2026-05-01 15:29 | 43.41877 | 26.89635 | 11902 ft | 363 kts | 114° |
| 2026-05-01 15:29 | 43.39694 | 26.95861 | 10756 ft | 358 kts | 114° |
| 2026-05-01 15:30 | 43.37620 | 27.01753 | 10512 ft | 328 kts | 114° |
| 2026-05-01 15:31 | 43.34018 | 27.11980 | 9622 ft | 289 kts | 114° |
| 2026-05-01 15:31 | 43.32276 | 27.16919 | 9163 ft | 287 kts | 113° |
| 2026-05-01 15:32 | 43.30536 | 27.21822 | 8302 ft | 285 kts | 114° |
| 2026-05-01 15:32 | 43.28811 | 27.26690 | 7435 ft | 283 kts | 114° |
| 2026-05-01 15:33 | 43.27367 | 27.34326 | 6227 ft | 273 kts | 94° |
| 2026-05-01 15:34 | 43.26716 | 27.41977 | 5190 ft | 259 kts | 94° |